Time;durP1;ratioP1;P1;durP2;ratioP2;P2;SDS_P1;SDS_P2;PMS_P1;PMS_P2;Temp;Humidity;BMP_temperature;BMP_pressure;BME280_temperature;BME280_humidity;BME280_pressure;Samples;Min_cycle;Max_cycle;Signal;HPM_P1;HPM_P2
2021/03/18 00:01:34;;;;;;;26.35;16.00;;;128.90;2176.00;;;;;;5075847;28;20357;-74
2021/03/18 00:04:00;;;;;;;22.40;16.05;;;128.80;2150.40;;;;;;5071450;28;20032;-73
2021/03/18 00:06:26;;;;;;;32.55;16.20;;;128.80;2150.40;;;;;;5063828;28;20503;-74
2021/03/18 00:08:52;;;;;;;25.00;15.75;;;128.80;2176.00;;;;;;5057949;28;20028;-74
2021/03/18 00:11:20;;;;;;;25.98;16.00;;;128.70;2176.00;;;;;;5084956;28;20021;-74
2021/03/18 00:13:46;;;;;;;24.83;16.58;;;128.70;2176.00;;;;;;5060982;28;20370;-74
2021/03/18 00:16:13;;;;;;;23.35;15.13;;;128.60;2176.00;;;;;;5080318;28;20041;-73
2021/03/18 00:18:42;;;;;;;23.27;14.48;;;128.60;2176.00;;;;;;5079221;28;20035;-74
2021/03/18 00:21:08;;;;;;;20.38;13.18;;;128.50;2150.40;;;;;;5069432;28;20028;-74
2021/03/18 00:23:34;;;;;;;23.00;13.00;;;128.50;2150.40;;;;;;5071958;28;20020;-74
2021/03/18 00:26:00;;;;;;;19.95;12.05;;;128.50;2124.80;;;;;;5044946;28;20040;-74
2021/03/18 00:28:27;;;;;;;18.90;12.30;;;128.40;2099.20;;;;;;5078119;28;20039;-74
2021/03/18 00:30:53;;;;;;;19.40;11.10;;;128.40;2073.60;;;;;;5059435;28;20760;-74
2021/03/18 00:33:18;;;;;;;16.52;11.63;;;128.40;2073.60;;;;;;5058253;28;20141;-74
2021/03/18 00:35:44;;;;;;;16.80;10.45;;;128.40;2073.60;;;;;;5053598;28;20036;-74
2021/03/18 00:38:11;;;;;;;18.55;11.85;;;128.40;2099.20;;;;;;5067484;28;20057;-74
2021/03/18 00:40:43;;;;;;;18.58;11.90;;;128.40;2073.60;;;;;;5078133;28;20031;-75
2021/03/18 00:43:12;;;;;;;21.08;12.55;;;128.30;2099.20;;;;;;5044913;28;20029;-74
2021/03/18 00:45:41;;;;;;;19.52;13.60;;;128.40;2099.20;;;;;;5071866;28;20393;-75
2021/03/18 00:48:08;;;;;;;19.15;12.98;;;128.30;2099.20;;;;;;5071452;28;20033;-74
2021/03/18 00:50:39;;;;;;;16.67;11.10;;;128.30;2124.80;;;;;;5064864;28;20055;-74
2021/03/18 00:53:07;;;;;;;19.15;12.95;;;128.30;2124.80;;;;;;5053671;28;20162;-74
2021/03/18 00:55:33;;;;;;;18.13;11.93;;;128.20;2124.80;;;;;;5074724;28;20028;-74
2021/03/18 00:57:59;;;;;;;18.80;12.27;;;128.20;2124.80;;;;;;5076594;28;20029;-74
2021/03/18 01:00:38;;;;;;;17.83;11.57;;;128.20;2099.20;;;;;;5068181;28;20162;-74
2021/03/18 01:03:05;;;;;;;17.98;11.75;;;128.20;2124.80;;;;;;5090827;28;20028;-74
2021/03/18 01:05:54;;;;;;;19.75;12.65;;;128.10;2124.80;;;;;;5075556;28;20024;-74
2021/03/18 01:08:24;;;;;;;17.20;11.93;;;128.10;2124.80;;;;;;5075051;28;20040;-74
2021/03/18 01:10:56;;;;;;;18.95;13.07;;;128.10;2150.40;;;;;;5057621;28;20477;-74
2021/03/18 01:13:22;;;;;;;18.58;12.18;;;128.10;2124.80;;;;;;5063809;28;20240;-74
2021/03/18 01:15:54;;;;;;;17.80;11.68;;;128.10;2124.80;;;;;;5085231;28;20083;-74
2021/03/18 01:18:22;;;;;;;15.73;10.38;;;128.10;2124.80;;;;;;5042721;28;20055;-74
2021/03/18 01:20:48;;;;;;;19.05;12.02;;;128.10;2124.80;;;;;;5085585;28;20477;-74
2021/03/18 01:23:14;;;;;;;17.38;11.15;;;128.10;2124.80;;;;;;5060706;28;20028;-75
2021/03/18 01:25:40;;;;;;;16.50;11.38;;;128.10;2150.40;;;;;;5071666;28;20036;-74
2021/03/18 01:28:09;;;;;;;19.83;12.15;;;128.10;2150.40;;;;;;5060538;28;20024;-74
2021/03/18 01:30:39;;;;;;;16.58;11.25;;;128.00;2150.40;;;;;;5067435;28;20111;-74
2021/03/18 01:33:07;;;;;;;17.02;11.80;;;128.00;2150.40;;;;;;5044678;28;20087;-74
2021/03/18 01:35:33;;;;;;;18.23;12.98;;;103.30;2124.80;;;;;;5075426;28;20086;-74
2021/03/18 01:37:59;;;;;;;19.90;12.50;;;128.00;2124.80;;;;;;5068080;28;20491;-74
2021/03/18 01:40:28;;;;;;;19.50;12.50;;;103.30;2099.20;;;;;;5079478;28;20095;-74
2021/03/18 01:42:55;;;;;;;20.33;13.07;;;103.30;2099.20;;;;;;5071131;28;20017;-74
2021/03/18 01:45:21;;;;;;;22.73;13.13;;;103.30;2099.20;;;;;;5086533;28;20047;-74
2021/03/18 01:47:49;;;;;;;20.92;13.18;;;103.20;2099.20;;;;;;5074624;28;20025;-74
2021/03/18 01:50:16;;;;;;;19.60;13.25;;;103.20;2099.20;;;;;;5056701;28;20039;-74
2021/03/18 01:52:43;;;;;;;16.38;12.30;;;103.20;2124.80;;;;;;5074336;28;20655;-74
2021/03/18 01:55:31;;;;;;;18.85;12.45;;;103.20;2124.80;;;;;;5056730;28;20032;-74
2021/03/18 01:57:58;;;;;;;25.17;15.70;;;103.20;2124.80;;;;;;5072984;28;20036;-74
2021/03/18 02:00:26;;;;;;;20.80;13.90;;;103.10;2124.80;;;;;;5056376;28;20503;-73
2021/03/18 02:02:52;;;;;;;22.00;13.73;;;103.10;2150.40;;;;;;5074580;28;20908;-74
2021/03/18 02:05:18;;;;;;;20.02;14.18;;;103.10;2150.40;;;;;;5073894;28;20107;-74
2021/03/18 02:07:44;;;;;;;22.63;15.70;;;103.00;2150.40;;;;;;5074534;28;20096;-74
2021/03/18 02:10:10;;;;;;;21.95;14.55;;;103.00;2150.40;;;;;;5054862;28;20120;-74
2021/03/18 02:12:36;;;;;;;18.38;13.25;;;103.00;2176.00;;;;;;5054001;28;20024;-74
2021/03/18 02:15:06;;;;;;;22.38;14.77;;;103.00;2176.00;;;;;;5070273;28;20048;-74
2021/03/18 02:17:49;;;;;;;22.08;13.45;;;103.00;2176.00;;;;;;5074043;28;20036;-74
2021/03/18 02:20:33;;;;;;;20.50;13.85;;;103.00;2176.00;;;;;;5056133;28;20102;-74
2021/03/18 02:23:08;;;;;;;19.77;14.35;;;103.00;2176.00;;;;;;5055655;28;20024;-76
2021/03/18 02:26:03;;;;;;;21.85;13.60;;;103.00;2176.00;;;;;;5073603;28;20822;-74
2021/03/18 02:29:10;;;;;;;25.42;15.55;;;103.00;2176.00;;;;;;5060820;28;20060;-73
2021/03/18 02:31:51;;;;;;;26.05;16.55;;;103.00;2176.00;;;;;;5070958;28;20033;-73
2021/03/18 02:34:37;;;;;;;21.08;14.80;;;103.00;2201.60;;;;;;5043082;28;20033;-73
2021/03/18 02:37:13;;;;;;;22.50;14.82;;;103.00;2201.60;;;;;;5073554;28;20044;-74
2021/03/18 02:39:55;;;;;;;22.30;14.65;;;103.00;2201.60;;;;;;5055606;28;20104;-74
2021/03/18 02:42:23;;;;;;;23.50;14.32;;;103.00;2201.60;;;;;;5073860;28;20469;-75
2021/03/18 02:44:51;;;;;;;21.13;14.85;;;103.00;2201.60;;;;;;5055555;28;20431;-75
2021/03/18 02:47:23;;;;;;;21.10;15.65;;;103.00;2201.60;;;;;;5050899;28;20081;-75
2021/03/18 02:49:52;;;;;;;25.10;16.50;;;103.00;2201.60;;;;;;5073411;28;20042;-74
2021/03/18 02:52:22;;;;;;;26.05;15.27;;;102.90;2201.60;;;;;;5073500;28;20024;-74
2021/03/18 02:54:53;;;;;;;23.52;15.43;;;102.90;2227.20;;;;;;5055651;28;20024;-74
2021/03/18 02:57:20;;;;;;;19.92;14.18;;;102.90;2227.20;;;;;;5055213;28;20381;-75
2021/03/18 02:59:47;;;;;;;18.38;13.40;;;102.80;2227.20;;;;;;5055776;28;20063;-74
2021/03/18 03:02:21;;;;;;;22.30;16.30;;;102.80;2227.20;;;;;;5059176;28;20031;-74
2021/03/18 03:04:48;;;;;;;22.40;13.85;;;102.70;2227.20;;;;;;5061280;28;20025;-75
2021/03/18 03:07:16;;;;;;;22.83;15.25;;;102.70;2227.20;;;;;;5083451;28;20028;-74
2021/03/18 03:09:44;;;;;;;26.02;16.15;;;102.70;2227.20;;;;;;5058264;28;20035;-74
2021/03/18 03:12:11;;;;;;;27.77;16.23;;;102.70;2227.20;;;;;;5092092;28;20074;-74
2021/03/18 03:14:39;;;;;;;19.65;13.85;;;102.70;2227.20;;;;;;5074153;28;20086;-74
2021/03/18 03:17:05;;;;;;;21.67;15.38;;;102.70;2227.20;;;;;;5084485;28;20067;-74
2021/03/18 03:19:36;;;;;;;22.90;14.85;;;102.70;2227.20;;;;;;5062075;28;20831;-74
2021/03/18 03:22:03;;;;;;;21.17;14.10;;;102.60;2227.20;;;;;;5067237;28;20055;-74
2021/03/18 03:24:33;;;;;;;25.13;16.70;;;102.70;2227.20;;;;;;5055230;28;20089;-74
2021/03/18 03:26:59;;;;;;;28.30;15.55;;;102.70;2227.20;;;;;;5074163;28;20036;-74
2021/03/18 03:29:26;;;;;;;25.95;15.20;;;102.70;2227.20;;;;;;5064617;28;20111;-74
2021/03/18 03:31:52;;;;;;;24.38;15.68;;;102.70;2227.20;;;;;;5070878;28;20021;-74
2021/03/18 03:34:19;;;;;;;26.83;15.68;;;102.70;2227.20;;;;;;5066473;28;20024;-75
2021/03/18 03:36:46;;;;;;;27.92;16.70;;;102.70;2227.20;;;;;;5071654;28;20039;-74
2021/03/18 03:39:12;;;;;;;25.27;17.25;;;102.70;2227.20;;;;;;5075173;28;20016;-74
2021/03/18 03:41:38;;;;;;;27.63;17.52;;;102.70;2227.20;;;;;;5083629;28;20028;-74
2021/03/18 03:44:05;;;;;;;20.48;14.32;;;102.80;2227.20;;;;;;5055411;28;20064;-75
2021/03/18 03:46:32;;;;;;;26.13;16.83;;;102.70;2227.20;;;;;;5072709;28;20028;-75
2021/03/18 03:48:58;;;;;;;21.75;15.35;;;102.70;2227.20;;;;;;5054164;28;20111;-75
2021/03/18 03:51:32;;;;;;;25.88;16.10;;;102.70;2227.20;;;;;;5072547;28;20104;-75
2021/03/18 03:54:02;;;;;;;26.58;15.57;;;102.80;2227.20;;;;;;5054270;28;20028;-74
2021/03/18 03:56:34;;;;;;;26.23;16.27;;;102.80;2227.20;;;;;;5054582;28;20456;-75
2021/03/18 03:59:06;;;;;;;26.85;17.45;;;102.80;2227.20;;;;;;5054289;28;20048;-76
2021/03/18 04:01:43;;;;;;;24.52;15.00;;;102.70;2227.20;;;;;;5053725;28;20468;-75
2021/03/18 04:04:32;;;;;;;26.60;16.50;;;102.70;2227.20;;;;;;5072682;28;20020;-75
2021/03/18 04:07:00;;;;;;;25.08;15.25;;;102.70;2227.20;;;;;;5050942;28;20059;-74
2021/03/18 04:09:28;;;;;;;29.10;16.17;;;102.70;2227.20;;;;;;5072146;28;20451;-74
2021/03/18 04:11:56;;;;;;;27.30;15.93;;;102.80;2227.20;;;;;;5054721;28;20433;-74
2021/03/18 04:14:26;;;;;;;26.23;16.10;;;102.70;2227.20;;;;;;5071923;28;20459;-74
2021/03/18 04:16:55;;;;;;;24.80;14.75;;;102.70;2227.20;;;;;;5044481;28;20033;-74
2021/03/18 04:19:21;;;;;;;25.35;16.17;;;102.80;2227.20;;;;;;5086982;28;20780;-74
2021/03/18 04:21:51;;;;;;;25.95;15.85;;;102.80;2227.20;;;;;;5067642;28;20013;-74
2021/03/18 04:24:19;;;;;;;23.90;16.02;;;102.80;2227.20;;;;;;5053566;28;20484;-74
2021/03/18 04:26:46;;;;;;;28.85;18.30;;;102.80;2227.20;;;;;;5053051;28;20040;-74
2021/03/18 04:29:14;;;;;;;24.65;14.73;;;102.70;2227.20;;;;;;5071736;28;20025;-75
2021/03/18 04:31:41;;;;;;;26.98;15.88;;;102.70;2227.20;;;;;;5062810;28;20419;-74
2021/03/18 04:34:09;;;;;;;25.23;15.05;;;102.70;2227.20;;;;;;5075973;28;20025;-74
2021/03/18 04:36:36;;;;;;;25.30;16.15;;;102.70;2227.20;;;;;;5090959;28;20066;-74
2021/03/18 04:39:04;;;;;;;25.30;16.00;;;102.60;2227.20;;;;;;5072394;28;20020;-74
2021/03/18 04:41:31;;;;;;;29.50;17.67;;;102.70;2227.20;;;;;;5061015;28;20388;-74
2021/03/18 04:43:57;;;;;;;30.73;17.75;;;102.70;2227.20;;;;;;5053541;28;20400;-76
2021/03/18 04:46:25;;;;;;;30.17;18.40;;;102.70;2227.20;;;;;;5071897;28;20012;-75
2021/03/18 04:48:55;;;;;;;28.85;16.60;;;102.70;2227.20;;;;;;5071433;28;20103;-74
2021/03/18 04:51:21;;;;;;;30.42;18.60;;;102.70;2227.20;;;;;;5053983;28;20040;-75
2021/03/18 04:53:47;;;;;;;27.70;17.75;;;102.70;2227.20;;;;;;5071589;28;20016;-75
2021/03/18 04:56:14;;;;;;;29.05;17.27;;;102.70;2227.20;;;;;;5072017;28;20070;-75
2021/03/18 04:58:41;;;;;;;25.95;16.30;;;102.70;2227.20;;;;;;5060910;28;20056;-75
2021/03/18 05:01:08;;;;;;;26.00;16.95;;;102.70;2227.20;;;;;;5054297;28;20493;-73
2021/03/18 05:03:35;;;;;;;29.55;18.27;;;102.60;2227.20;;;;;;5066002;28;20031;-73
2021/03/18 05:06:04;;;;;;;27.75;18.13;;;102.60;2227.20;;;;;;5053328;28;20032;-73
2021/03/18 05:08:33;;;;;;;30.83;17.27;;;102.60;2227.20;;;;;;5054757;28;20024;-74
2021/03/18 05:10:59;;;;;;;27.23;18.08;;;102.60;2227.20;;;;;;5052770;28;20064;-74
2021/03/18 05:13:28;;;;;;;23.08;16.63;;;102.60;2227.20;;;;;;5072161;28;20075;-74
2021/03/18 05:15:56;;;;;;;26.00;17.52;;;102.60;2227.20;;;;;;5052260;28;20128;-74
2021/03/18 05:18:23;;;;;;;29.70;17.35;;;102.60;2227.20;;;;;;5072872;28;20028;-74
2021/03/18 05:20:49;;;;;;;26.58;18.25;;;102.60;2227.20;;;;;;5072930;28;20040;-74
2021/03/18 05:23:16;;;;;;;34.63;18.85;;;102.60;2227.20;;;;;;5071201;28;20345;-74
2021/03/18 05:25:44;;;;;;;29.63;18.45;;;102.50;2227.20;;;;;;5072156;28;20025;-74
2021/03/18 05:28:11;;;;;;;29.75;18.02;;;102.50;2227.20;;;;;;5049943;28;20093;-74
2021/03/18 05:30:37;;;;;;;27.40;17.17;;;102.50;2227.20;;;;;;5072118;28;20043;-74
2021/03/18 05:33:04;;;;;;;27.92;18.40;;;102.50;2227.20;;;;;;5071027;28;20062;-73
2021/03/18 05:35:31;;;;;;;28.73;18.98;;;102.50;2227.20;;;;;;5054819;28;20035;-73
2021/03/18 05:37:58;;;;;;;28.08;18.52;;;102.50;2227.20;;;;;;5070781;28;20782;-74
2021/03/18 05:40:24;;;;;;;32.95;21.10;;;102.50;2227.20;;;;;;5052633;28;20031;-75
2021/03/18 05:42:51;;;;;;;31.98;19.92;;;102.50;2227.20;;;;;;5056659;28;20028;-74
2021/03/18 05:45:18;;;;;;;30.38;19.25;;;102.50;2227.20;;;;;;5074739;28;20031;-74
2021/03/18 05:47:44;;;;;;;30.80;18.55;;;102.50;2227.20;;;;;;5085642;28;20028;-74
2021/03/18 05:50:17;;;;;;;31.23;18.75;;;102.50;2227.20;;;;;;5069439;28;20130;-74
2021/03/18 05:52:43;;;;;;;29.60;19.08;;;102.50;2227.20;;;;;;5080270;28;20449;-74
2021/03/18 05:55:10;;;;;;;29.33;18.83;;;102.50;2227.20;;;;;;5081918;28;20028;-74
2021/03/18 05:57:37;;;;;;;27.00;17.42;;;102.50;2227.20;;;;;;5081258;28;20396;-74
2021/03/18 06:00:12;;;;;;;31.52;18.83;;;102.50;2227.20;;;;;;5080980;28;20099;-75
2021/03/18 06:02:41;;;;;;;33.47;19.05;;;102.40;2227.20;;;;;;5072202;28;20025;-74
2021/03/18 06:05:12;;;;;;;30.50;19.85;;;102.40;2227.20;;;;;;5064867;28;20056;-74
2021/03/18 06:07:40;;;;;;;28.67;17.65;;;102.40;2227.20;;;;;;5072811;28;20028;-74
2021/03/18 06:10:08;;;;;;;32.63;19.65;;;102.40;2227.20;;;;;;5056929;28;20120;-75
2021/03/18 06:12:36;;;;;;;27.08;17.85;;;102.50;2227.20;;;;;;5058387;28;20056;-74
2021/03/18 06:15:04;;;;;;;26.50;17.45;;;102.50;2227.20;;;;;;5075079;28;20048;-75
2021/03/18 06:17:32;;;;;;;29.73;17.15;;;102.50;2227.20;;;;;;5070650;28;20055;-74
2021/03/18 06:19:59;;;;;;;26.67;16.73;;;102.50;2227.20;;;;;;5083131;28;20512;-75
2021/03/18 06:22:40;;;;;;;25.13;17.15;;;102.40;2227.20;;;;;;5051876;28;20441;-75
2021/03/18 06:25:17;;;;;;;28.40;17.63;;;102.50;2227.20;;;;;;5047942;28;20562;-75
2021/03/18 06:27:43;;;;;;;29.92;17.30;;;102.40;2227.20;;;;;;5086698;28;20064;-76
2021/03/18 06:30:11;;;;;;;27.88;17.10;;;102.50;2227.20;;;;;;5056458;28;20064;-74
2021/03/18 06:32:36;;;;;;;31.35;19.55;;;102.50;2227.20;;;;;;5073285;28;20043;-75
2021/03/18 06:35:03;;;;;;;27.00;17.40;;;102.50;2227.20;;;;;;5050498;28;20037;-74
2021/03/18 06:37:32;;;;;;;34.25;20.10;;;102.50;2227.20;;;;;;5058829;28;20388;-75
2021/03/18 06:40:18;;;;;;;36.50;22.10;;;102.50;2227.20;;;;;;5073701;28;20423;-75
2021/03/18 06:42:56;;;;;;;33.00;20.05;;;102.60;2227.20;;;;;;5046480;28;20033;-76
2021/03/18 06:45:27;;;;;;;35.17;20.38;;;102.70;2227.20;;;;;;5073152;28;20067;-75
2021/03/18 06:47:57;;;;;;;31.10;18.40;;;102.60;2227.20;;;;;;5073500;28;20028;-74
2021/03/18 06:50:28;;;;;;;31.45;19.52;;;102.70;2227.20;;;;;;5046947;28;20025;-75
2021/03/18 06:52:54;;;;;;;30.83;19.30;;;102.70;2227.20;;;;;;5073604;28;20028;-75
2021/03/18 06:55:27;;;;;;;35.13;21.02;;;102.70;2227.20;;;;;;5074849;28;20032;-76
2021/03/18 06:58:17;;;;;;;32.45;20.08;;;102.70;2227.20;;;;;;5052439;28;20048;-78
2021/03/18 07:00:51;;;;;;;29.90;18.10;;;102.70;2227.20;;;;;;5056167;28;20472;-78
2021/03/18 07:03:38;;;;;;;29.77;19.85;;;102.70;2227.20;;;;;;5073373;28;20032;-76
2021/03/18 07:06:06;;;;;;;26.45;18.10;;;102.70;2227.20;;;;;;5072390;28;20085;-79
2021/03/18 07:08:34;;;;;;;28.45;18.95;;;102.70;2227.20;;;;;;5053382;28;20028;-79
2021/03/18 07:11:13;;;;;;;31.80;19.45;;;102.70;2227.20;;;;;;5050250;28;20016;-79
2021/03/18 07:13:42;;;;;;;29.27;19.40;;;102.80;2227.20;;;;;;5059346;28;20043;-78
2021/03/18 07:16:09;;;;;;;29.45;19.73;;;102.80;2227.20;;;;;;5067739;28;20044;-78
2021/03/18 07:18:36;;;;;;;31.55;19.38;;;102.80;2227.20;;;;;;5059402;28;20044;-77
2021/03/18 07:21:08;;;;;;;31.05;19.30;;;102.80;2227.20;;;;;;5061613;28;20389;-77
2021/03/18 07:23:46;;;;;;;29.52;20.25;;;102.80;2227.20;;;;;;5051101;28;20033;-79
2021/03/18 07:26:14;;;;;;;29.40;18.52;;;102.80;2227.20;;;;;;5069732;28;20358;-81
2021/03/18 07:28:40;;;;;;;31.42;19.50;;;102.80;2227.20;;;;;;5049671;28;20071;-81
2021/03/18 07:31:06;;;;;;;28.85;19.30;;;102.80;2227.20;;;;;;5048548;28;20033;-81
2021/03/18 07:33:33;;;;;;;28.45;17.38;;;102.80;2227.20;;;;;;5055415;28;20397;-78
2021/03/18 07:36:01;;;;;;;28.65;18.52;;;102.80;2227.20;;;;;;5054191;28;20044;-76
2021/03/18 07:38:29;;;;;;;25.23;16.65;;;102.80;2227.20;;;;;;5070533;28;20087;-76
2021/03/18 07:40:56;;;;;;;31.48;19.02;;;102.80;2227.20;;;;;;5073188;28;20025;-77
2021/03/18 07:43:26;;;;;;;27.90;19.40;;;102.80;2227.20;;;;;;5050726;28;20028;-77
2021/03/18 07:45:52;;;;;;;30.50;19.48;;;102.70;2227.20;;;;;;5065596;28;20814;-79
2021/03/18 07:48:23;;;;;;;31.75;18.45;;;102.70;2227.20;;;;;;5056793;28;20123;-82
2021/03/18 07:50:50;;;;;;;39.05;21.98;;;102.70;2227.20;;;;;;5068660;28;20021;-80
2021/03/18 07:53:18;;;;;;;30.58;19.80;;;102.70;2227.20;;;;;;5056162;28;20110;-79
2021/03/18 07:55:46;;;;;;;32.67;21.40;;;102.70;2227.20;;;;;;5072482;28;20031;-80
2021/03/18 07:58:12;;;;;;;39.63;22.35;;;102.70;2227.20;;;;;;5059115;28;20501;-77
2021/03/18 08:00:43;;;;;;;32.38;19.50;;;102.70;2227.20;;;;;;5072543;28;20132;-76
2021/03/18 08:03:21;;;;;;;30.65;20.85;;;102.80;2227.20;;;;;;5057914;28;20036;-77
2021/03/18 08:05:47;;;;;;;29.55;20.70;;;102.80;2227.20;;;;;;5082432;28;20433;-81
2021/03/18 08:08:45;;;;;;;28.67;20.13;;;102.80;2227.20;;;;;;5090656;28;20020;-83
2021/03/18 08:11:20;;;;;;;30.55;20.27;;;102.80;2227.20;;;;;;4990728;28;20040;-80
2021/03/18 08:13:46;;;;;;;31.83;20.98;;;102.80;2227.20;;;;;;5009851;28;20034;-81
2021/03/18 08:16:26;;;;;;;27.77;19.45;;;102.80;2227.20;;;;;;5010293;28;20053;-80
2021/03/18 08:18:52;;;;;;;27.23;19.80;;;102.80;2227.20;;;;;;5010205;28;20125;-80
2021/03/18 08:21:18;;;;;;;31.23;19.95;;;102.80;2227.20;;;;;;5009656;28;20436;-80
2021/03/18 08:23:51;;;;;;;31.13;19.83;;;102.80;2227.20;;;;;;4990392;28;20097;-80
2021/03/18 08:26:22;;;;;;;29.30;19.95;;;102.80;2227.20;;;;;;4993313;28;20037;-80
2021/03/18 08:29:05;;;;;;;30.92;19.08;;;102.90;2227.20;;;;;;5010263;28;20498;-79
2021/03/18 08:31:30;;;;;;;25.48;17.92;;;102.90;2227.20;;;;;;4992020;28;20033;-80
2021/03/18 08:33:57;;;;;;;22.75;17.52;;;102.90;2227.20;;;;;;5008584;28;20040;-80
2021/03/18 08:36:27;;;;;;;33.20;20.25;;;102.90;2227.20;;;;;;5009565;28;20029;-80
2021/03/18 08:39:33;;;;;;;33.10;20.73;;;103.00;2227.20;;;;;;4995103;28;20580;-80
2021/03/18 08:42:00;;;;;;;32.22;20.80;;;103.10;2227.20;;;;;;4992658;28;20022;-81
2021/03/18 08:44:31;;;;;;;35.38;22.25;;;103.00;2227.20;;;;;;5009987;28;20045;-81
2021/03/18 08:47:05;;;;;;;29.60;20.80;;;103.00;2227.20;;;;;;5026041;28;20044;-79
2021/03/18 08:49:42;;;;;;;33.78;22.27;;;103.00;2227.20;;;;;;5045300;28;20031;-80
2021/03/18 08:52:17;;;;;;;38.25;21.27;;;102.90;2227.20;;;;;;5053715;28;20024;-80
2021/03/18 08:54:49;;;;;;;33.90;21.05;;;102.90;2227.20;;;;;;5072283;28;20393;-80
2021/03/18 08:57:26;;;;;;;32.35;19.75;;;102.90;2227.20;;;;;;5050078;28;20032;-82
2021/03/18 09:00:09;;;;;;;34.88;22.10;;;102.90;2227.20;;;;;;5072472;28;20040;-77
2021/03/18 09:02:35;;;;;;;37.33;24.42;;;103.00;2227.20;;;;;;5083431;28;20112;-77
2021/03/18 09:05:09;;;;;;;43.25;24.92;;;103.00;2227.20;;;;;;5072494;28;20103;-78
2021/03/18 09:07:35;;;;;;;33.88;22.05;;;103.10;2227.20;;;;;;5070150;28;20029;-79
2021/03/18 09:10:06;;;;;;;40.40;24.05;;;103.10;2227.20;;;;;;5051361;28;20024;-77
2021/03/18 09:12:50;;;;;;;31.45;21.13;;;103.00;2227.20;;;;;;5075138;28;20108;-82
2021/03/18 09:15:23;;;;;;;35.13;22.30;;;103.00;2227.20;;;;;;5071796;28;20044;-78
2021/03/18 09:17:52;;;;;;;39.05;24.80;;;102.90;2227.20;;;;;;5048381;28;20095;-79
2021/03/18 09:20:21;;;;;;;38.80;24.00;;;102.90;2227.20;;;;;;5078815;28;20032;-78
2021/03/18 09:22:47;;;;;;;43.80;25.67;;;102.90;2227.20;;;;;;5056931;28;20035;-78
2021/03/18 09:25:17;;;;;;;40.20;23.60;;;102.90;2227.20;;;;;;5056416;28;20028;-78
2021/03/18 09:27:45;;;;;;;38.55;26.58;;;102.80;2227.20;;;;;;5059037;28;20028;-81
2021/03/18 09:30:17;;;;;;;51.70;29.38;;;102.80;2227.20;;;;;;5056607;28;20041;-80
2021/03/18 09:32:43;;;;;;;38.88;24.70;;;102.90;2227.20;;;;;;5054292;28;20028;-78
2021/03/18 09:35:12;;;;;;;34.58;24.35;;;102.90;2227.20;;;;;;5054929;28;20043;-78
2021/03/18 09:37:38;;;;;;;40.33;25.02;;;103.00;2227.20;;;;;;5074481;28;20096;-78
2021/03/18 09:40:05;;;;;;;35.65;24.27;;;103.10;2227.20;;;;;;5054617;28;20127;-78
2021/03/18 09:42:30;;;;;;;37.92;24.85;;;103.10;2227.20;;;;;;5075754;28;20536;-77
2021/03/18 09:44:57;;;;;;;33.88;22.90;;;103.10;2227.20;;;;;;5054284;28;20039;-79
2021/03/18 09:47:23;;;;;;;33.67;21.27;;;103.10;2227.20;;;;;;5053349;28;20123;-79
2021/03/18 09:49:52;;;;;;;30.25;19.08;;;103.10;2227.20;;;;;;5055638;28;20112;-80
2021/03/18 09:52:22;;;;;;;31.00;20.13;;;103.10;2227.20;;;;;;5055399;28;20484;-81
2021/03/18 09:54:49;;;;;;;32.85;22.77;;;103.10;2227.20;;;;;;5073533;28;20066;-77
2021/03/18 09:57:15;;;;;;;33.75;21.67;;;103.20;2227.20;;;;;;5073708;28;20029;-80
2021/03/18 09:59:42;;;;;;;30.05;20.77;;;103.20;2227.20;;;;;;5054393;28;20043;-80
2021/03/18 10:02:08;;;;;;;30.98;21.75;;;103.20;2227.20;;;;;;5053907;28;20500;-78
2021/03/18 10:04:44;;;;;;;32.90;21.60;;;103.30;2227.20;;;;;;5056338;28;20064;-79
2021/03/18 10:07:12;;;;;;;30.85;20.08;;;128.00;2252.80;;;;;;5050928;28;20123;-79
2021/03/18 10:09:44;;;;;;;34.60;21.48;;;103.30;2227.20;;;;;;5071662;28;20043;-79
2021/03/18 10:12:20;;;;;;;28.45;19.30;;;103.30;2227.20;;;;;;5054258;28;20040;-79
2021/03/18 10:14:51;;;;;;;35.33;25.15;;;128.00;2252.80;;;;;;5070678;28;20036;-77
2021/03/18 10:17:25;;;;;;;33.08;23.50;;;103.20;2227.20;;;;;;5056400;28;20580;-78
2021/03/18 10:20:03;;;;;;;30.27;21.50;;;103.30;2227.20;;;;;;5055429;28;20036;-79
2021/03/18 10:22:36;;;;;;;39.42;21.35;;;103.30;2227.20;;;;;;5072301;28;20016;-77
2021/03/18 10:25:11;;;;;;;31.08;21.73;;;103.30;2227.20;;;;;;5055905;28;20017;-78
2021/03/18 10:27:43;;;;;;;29.92;20.10;;;128.00;2252.80;;;;;;5054543;28;20537;-78
2021/03/18 10:30:20;;;;;;;35.22;22.85;;;128.10;2252.80;;;;;;5070301;28;20460;-79
2021/03/18 10:33:20;;;;;;;25.50;18.55;;;128.10;2252.80;;;;;;5072930;28;20060;-77
2021/03/18 10:35:52;;;;;;;27.30;19.40;;;128.00;2252.80;;;;;;5071252;28;20146;-77
2021/03/18 10:38:27;;;;;;;38.65;23.75;;;103.30;2227.20;;;;;;5048803;28;20088;-79
2021/03/18 10:40:53;;;;;;;39.10;25.00;;;128.00;2252.80;;;;;;5055763;28;20031;-79
2021/03/18 10:43:24;;;;;;;34.58;21.52;;;128.00;2252.80;;;;;;5072675;28;20036;-78
2021/03/18 10:45:55;;;;;;;38.40;25.25;;;128.00;2252.80;;;;;;5053600;28;20023;-79
2021/03/18 10:48:28;;;;;;;44.47;26.00;;;128.10;2252.80;;;;;;5054680;28;20113;-79
2021/03/18 10:51:00;;;;;;;37.30;26.88;;;128.10;2252.80;;;;;;5053345;28;20023;-78
2021/03/18 10:53:26;;;;;;;36.22;23.00;;;128.20;2252.80;;;;;;5054654;28;20029;-80
2021/03/18 10:55:54;;;;;;;34.35;21.17;;;128.30;2252.80;;;;;;5053643;28;20032;-81
2021/03/18 10:58:22;;;;;;;26.63;19.52;;;128.40;2252.80;;;;;;5050982;28;20492;-76
2021/03/18 11:01:00;;;;;;;31.08;20.80;;;128.40;2252.80;;;;;;5070161;28;20107;-77
2021/03/18 11:03:31;;;;;;;31.88;20.65;;;128.50;2252.80;;;;;;5066030;28;20104;-76
2021/03/18 11:05:58;;;;;;;31.15;21.17;;;128.50;2252.80;;;;;;5049129;28;20029;-79
2021/03/18 11:08:33;;;;;;;33.25;21.45;;;128.60;2252.80;;;;;;5044185;28;20419;-77
2021/03/18 11:11:10;;;;;;;33.70;20.92;;;128.70;2252.80;;;;;;5054000;28;20067;-77
2021/03/18 11:13:36;;;;;;;28.92;19.20;;;128.80;2252.80;;;;;;5071150;28;20021;-76
2021/03/18 11:16:04;;;;;;;32.58;21.10;;;128.90;2252.80;;;;;;5054013;28;20405;-76
2021/03/18 11:18:44;;;;;;;27.27;18.83;;;153.70;2252.80;;;;;;5071435;28;20117;-76
2021/03/18 11:21:18;;;;;;;30.83;21.85;;;153.70;2252.80;;;;;;5048051;28;20032;-77
2021/03/18 11:23:44;;;;;;;39.72;25.80;;;154.10;2252.80;;;;;;5054926;28;20396;-76
2021/03/18 11:26:10;;;;;;;31.35;22.17;;;154.30;2252.80;;;;;;5070334;28;20020;-76
2021/03/18 11:28:46;;;;;;;38.40;26.52;;;154.40;2252.80;;;;;;5072639;28;20021;-75
2021/03/18 11:31:15;;;;;;;22.20;15.80;;;154.50;2252.80;;;;;;5070757;28;20029;-76
2021/03/18 11:33:41;;;;;;;25.67;17.50;;;179.20;2227.20;;;;;;5058133;28;20117;-78
2021/03/18 11:36:07;;;;;;;26.55;16.23;;;179.20;2252.80;;;;;;5054580;28;20628;-78
2021/03/18 11:38:34;;;;;;;23.08;16.58;;;179.20;2227.20;;;;;;5054073;28;20082;-77
2021/03/18 11:41:00;;;;;;;25.85;17.80;;;179.30;2201.60;;;;;;5055753;28;20112;-76
2021/03/18 11:43:27;;;;;;;28.23;20.15;;;179.60;2227.20;;;;;;5071636;28;20017;-75
2021/03/18 11:45:54;;;;;;;23.02;16.98;;;179.80;2227.20;;;;;;5054667;28;20043;-76
2021/03/18 11:48:20;;;;;;;22.80;15.32;;;180.00;2176.00;;;;;;5052658;28;20094;-76
2021/03/18 11:50:46;;;;;;;22.50;16.17;;;180.00;2124.80;;;;;;5053644;28;20503;-77
2021/03/18 11:53:12;;;;;;;23.30;17.05;;;180.00;2150.40;;;;;;5073342;28;20064;-76
2021/03/18 11:55:38;;;;;;;23.38;16.27;;;204.80;2124.80;;;;;;5054076;28;20052;-76
2021/03/18 11:58:04;;;;;;;20.50;15.38;;;204.90;2099.20;;;;;;5052732;28;20916;-75
2021/03/18 12:00:38;;;;;;;25.90;16.98;;;204.80;2048.00;;;;;;5052638;28;20043;-75
2021/03/18 12:03:09;;;;;;;21.90;16.30;;;204.90;2073.60;;;;;;5051481;28;20111;-75
2021/03/18 12:05:37;;;;;;;20.73;15.70;;;204.90;2048.00;;;;;;5069932;28;20028;-76
2021/03/18 12:08:03;;;;;;;19.92;15.60;;;205.00;2022.40;;;;;;5054173;28;20036;-75
2021/03/18 12:10:29;;;;;;;19.08;14.07;;;205.30;2022.40;;;;;;5053840;28;20032;-75
2021/03/18 12:12:55;;;;;;;22.67;15.02;;;205.70;1945.60;;;;;;5053517;28;20028;-76